Carrier Princess — CZ3582 — position and weather

sailwx.info

Track history (hours):
 
Tides and Currents Weather Stations Pressure Air Temp Water Temp Dewpoint Dewpoint Depression Visibility Wind Speed Wind Dir Waves Ship Positions

Carrier Princess

Last reported at 2015-May-26 15:34 UTC. Time now 2015-May-26 15:43 UTC.
Position N 49°10' W 123°56'.

Length 112 m; draft 3 m.

Type: Cargo ship. MMSI: 316003656.

Date/timePositionNaut miles runAvg speedWind from/ knotsBaromVisibWave heightAir tempDewpointWater temp
2015-May-26 15:34N 49°10' W 123°56'0 0.0
2015-May-26 14:33N 49°10' W 123°56'0 0.0
2015-May-26 13:34N 49°10' W 123°56'0 0.0
2015-May-26 12:33N 49°10' W 123°56'0 0.0
2015-May-26 11:34N 49°10' W 123°56'5 5.3
2015-May-26 10:34N 49°13' W 123°49'1312.7
2015-May-26 09:34N 49°09' W 123°31'1312.5
2015-May-26 08:33N 49°07' W 123°12'7 6.6
2015-May-26 07:34N 49°09' W 123°02'0 0.0
2015-May-26 06:33N 49°09' W 123°02'10 9.9
2015-May-26 05:33N 49°07' W 123°17'1212.5
2015-May-26 04:33N 48°54' W 123°18'1312.8
2015-May-26 03:34N 48°42' W 123°24'1 0.9
2015-May-26 02:33N 48°41' W 123°24'0 0.0
2015-May-26 01:32N 48°41' W 123°24'1110.9
2015-May-26 00:33N 48°52' W 123°20'1312.6
2015-May-25 23:34N 49°04' W 123°21'1313.3
2015-May-25 22:33N 49°09' W 123°02'0 0.0
2015-May-25 21:33N 49°09' W 123°02'0 0.1
2015-May-25 20:33N 49°09' W 123°02'0 0.0
2015-May-25 19:33N 49°09' W 123°02'0 0.0
2015-May-25 18:33N 49°09' W 123°02'0 0.0
2015-May-25 17:33N 49°09' W 123°02'0 0.0
2015-May-25 16:33N 49°09' W 123°02'0 0.0
2015-May-25 15:33N 49°09' W 123°02'0 0.0
2015-May-25 14:33N 49°09' W 123°02'0 0.0
2015-May-25 13:33N 49°09' W 123°02'0 0.0
2015-May-25 12:33N 49°09' W 123°02'0 0.0
2015-May-25 11:33N 49°09' W 123°02'0 0.0
2015-May-25 10:33N 49°09' W 123°02'0 0.0
2015-May-25 09:33N 49°09' W 123°02'0 0.0
2015-May-25 08:33N 49°09' W 123°02'0 0.0
2015-May-25 07:33N 49°09' W 123°02'0 0.0
2015-May-25 06:33N 49°09' W 123°02'0 0.0
2015-May-25 05:33N 49°09' W 123°02'0 0.0
2015-May-25 04:33N 49°09' W 123°02'0 0.0
2015-May-25 03:33N 49°09' W 123°02'0 0.0
2015-May-25 02:33N 49°09' W 123°02'0 0.0
2015-May-25 01:33N 49°09' W 123°02'0 0.0
2015-May-25 00:33N 49°09' W 123°02'0 0.0
2015-May-24 23:33N 49°09' W 123°02'0 0.0
2015-May-24 22:33N 49°09' W 123°02'0 0.0
2015-May-24 21:33N 49°09' W 123°02'0 0.0
2015-May-24 20:33N 49°09' W 123°02'0 0.0
2015-May-24 19:33N 49°09' W 123°02'0 0.0
2015-May-24 18:33N 49°09' W 123°02'0 0.0
2015-May-24 17:33N 49°09' W 123°02'0 0.0
2015-May-24 16:33N 49°09' W 123°02'0 0.0
2015-May-24 15:33N 49°09' W 123°02'12 5.8
2015-May-24 13:32N 49°01' W 123°16'1211.0
2015-May-24 12:28N 48°50' W 123°20'9 8.5
2015-May-24 11:27N 48°41' W 123°24'0 0.0
2015-May-24 10:29N 48°41' W 123°24'0 0.4
2015-May-24 09:33N 48°42' W 123°24'1711.9
2015-May-24 08:09N 48°58' W 123°19'812.9
2015-May-24 07:31N 49°06' W 123°19'1111.6
2015-May-24 06:33N 49°09' W 123°02'0 0.2
2015-May-24 05:34N 49°09' W 123°02'0 0.0
2015-May-24 04:33N 49°09' W 123°02'0 0.0
2015-May-24 03:34N 49°09' W 123°02'0 0.0
2015-May-24 02:34N 49°09' W 123°02'0 0.0
2015-May-24 01:34N 49°09' W 123°02'0 0.0
2015-May-24 00:33N 49°09' W 123°02'0 0.0
2015-May-23 23:34N 49°09' W 123°02'0 0.0
2015-May-23 22:34N 49°09' W 123°02'0 0.0
2015-May-23 21:34N 49°09' W 123°02'0 0.0
2015-May-23 20:34N 49°09' W 123°02'0 0.0
2015-May-23 19:34N 49°09' W 123°02'0 0.0
2015-May-23 18:33N 49°09' W 123°02'0 0.0
2015-May-23 17:34N 49°09' W 123°02'0 0.0
2015-May-23 16:34N 49°09' W 123°02'0 0.0
2015-May-23 15:34N 49°09' W 123°02'4 3.8
2015-May-23 14:34N 49°07' W 123°07'8 8.3
2015-May-23 13:34N 49°04' W 123°19'1212.3
2015-May-23 12:33N 48°51' W 123°19'1110.5
2015-May-23 11:32N 48°41' W 123°24'0 0.1
2015-May-23 10:33N 48°41' W 123°24'6 6.3
2015-May-23 09:34N 48°47' W 123°21'1414.0
2015-May-23 08:34N 49°01' W 123°18'10 9.8
2015-May-23 07:34N 49°07' W 123°06'3 3.1
2015-May-23 06:33N 49°09' W 123°02'4 4.2
2015-May-23 05:34N 49°06' W 123°08'9 8.6
2015-May-23 04:34N 49°00' W 123°17'1413.6
2015-May-23 03:34N 48°47' W 123°20'6 6.3
2015-May-23 02:33N 48°41' W 123°24'0 0.0
2015-May-23 01:33N 48°41' W 123°24'10 9.6
2015-May-23 00:33N 48°51' W 123°21'1312.5
2015-May-22 23:33N 49°03' W 123°20'1313.0
2015-May-22 22:34N 49°09' W 123°02'0 0.0
2015-May-22 21:34N 49°09' W 123°02'0 0.0
2015-May-22 20:34N 49°09' W 123°02'0 0.0
2015-May-22 19:34N 49°09' W 123°02'0 0.0
2015-May-22 18:34N 49°09' W 123°02'0 0.0
2015-May-22 17:34N 49°09' W 123°02'0 0.0
2015-May-22 16:33N 49°09' W 123°02'0 0.0
2015-May-22 15:34N 49°09' W 123°02'5 5.4
2015-May-22 14:33N 49°07' W 123°10'7 7.2
2015-May-22 13:34N 49°01' W 123°17'1211.6
2015-May-22 12:33N 48°50' W 123°21'9 9.1
2015-May-22 11:33N 48°41' W 123°24'0 0.0
2015-May-22 10:33N 48°41' W 123°24'4 3.8
2015-May-22 09:33N 48°44' W 123°21'1515.0
2015-May-22 08:34N 48°59' W 123°18'1111.1
2015-May-22 07:33N 49°07' W 123°06'3 3.1
2015-May-22 06:33N 49°09' W 123°02'3 2.6
2015-May-22 05:33N 49°07' W 123°05'1010.1
2015-May-22 04:33N 49°01' W 123°18'1312.7
2015-May-22 03:33N 48°49' W 123°20'8 8.0
2015-May-22 02:33N 48°41' W 123°24'0 0.0
2015-May-22 01:33N 48°41' W 123°24'1010.2
2015-May-22 00:32N 48°51' W 123°21'1313.1
2015-May-21 23:33N 49°04' W 123°19'1212.1
2015-May-21 22:33N 49°09' W 123°02'0 0.0
2015-May-21 21:33N 49°09' W 123°02'0 0.0
2015-May-21 20:33N 49°09' W 123°02'0 0.0
2015-May-21 19:33N 49°09' W 123°02'0 0.0
2015-May-21 18:33N 49°09' W 123°02'0 0.0
2015-May-21 17:33N 49°09' W 123°02'0 0.0
2015-May-21 16:33N 49°09' W 123°02'0 0.0
2015-May-21 15:33N 49°09' W 123°02'5 5.2
2015-May-21 14:33N 49°07' W 123°09'7 7.3
2015-May-21 13:33N 49°02' W 123°18'1211.8
2015-May-21 12:33N 48°50' W 123°21'9 9.0
2015-May-21 11:33N 48°41' W 123°24'0 0.0
2015-May-21 10:33N 48°41' W 123°24'5 4.7
2015-May-21 09:33N 48°45' W 123°21'1514.5
2015-May-21 08:33N 48°60' W 123°19'1211.7
2015-May-21 07:34N 49°07' W 123°05'2 2.4
2015-May-21 06:33N 49°09' W 123°02'5 4.8
2015-May-21 05:33N 49°06' W 123°09'9 8.8
2015-May-21 04:33N 48°60' W 123°17'1313.1
2015-May-21 03:34N 48°47' W 123°21'6 5.9
2015-May-21 02:33N 48°41' W 123°24'0 0.0
2015-May-21 01:32N 48°41' W 123°24'9 9.1
2015-May-21 00:33N 48°50' W 123°21'1313.0
2015-May-20 23:33N 49°03' W 123°19'1312.5
2015-May-20 22:34N 49°09' W 123°02'0 0.2
2015-May-20 21:33N 49°09' W 123°02'0 0.0
2015-May-20 20:33N 49°09' W 123°02'0 0.0
2015-May-20 19:33N 49°09' W 123°02'0 0.0
2015-May-20 18:33N 49°09' W 123°02'0 0.0
2015-May-20 17:33N 49°09' W 123°02'0 0.0
2015-May-20 16:33N 49°09' W 123°02'0 0.0
2015-May-20 15:34N 49°09' W 123°02'5 5.5
2015-May-20 14:34N 49°07' W 123°10'7 6.9
2015-May-20 13:33N 49°02' W 123°17'1211.4
2015-May-20 12:33N 48°50' W 123°21'9 9.6
2015-May-20 11:33N 48°41' W 123°24'0 0.0
2015-May-20 10:32N 48°41' W 123°24'7 7.2
2015-May-20 09:33N 48°48' W 123°21'1313.5
2015-May-20 08:33N 49°01' W 123°19'1211.9
2015-May-20 07:33N 49°08' W 123°04'1 1.4
2015-May-20 06:33N 49°09' W 123°02'5 5.0
2015-May-20 05:33N 49°07' W 123°09'10 9.5
2015-May-20 04:33N 48°59' W 123°18'1211.9
2015-May-20 03:33N 48°47' W 123°21'7 6.6
2015-May-20 02:33N 48°41' W 123°24'0 0.0
2015-May-20 01:33N 48°41' W 123°24'9 8.7
2015-May-20 00:33N 48°50' W 123°21'1312.9
2015-May-19 23:34N 49°02' W 123°19'1212.3
2015-May-19 22:34N 49°09' W 123°03'1 0.5
2015-May-19 21:33N 49°09' W 123°02'0 0.1
2015-May-19 20:33N 49°09' W 123°02'0 0.0
2015-May-19 19:34N 49°09' W 123°02'0 0.0
2015-May-19 18:33N 49°09' W 123°02'0 0.0
2015-May-19 17:33N 49°09' W 123°02'0 0.0
2015-May-19 16:33N 49°09' W 123°02'0 0.0
2015-May-19 15:33N 49°09' W 123°02'0 0.0
2015-May-19 14:33N 49°09' W 123°02'0 0.0
2015-May-19 13:33N 49°09' W 123°02'0 0.0
2015-May-19 12:33N 49°09' W 123°02'0 0.0
2015-May-19 11:33N 49°09' W 123°02'0 0.0
2015-May-19 10:33N 49°09' W 123°02'0 0.0
2015-May-19 09:33N 49°09' W 123°02'0 0.0
2015-May-19 08:33N 49°09' W 123°02'0 0.0
2015-May-19 07:33N 49°09' W 123°02'0 0.0
2015-May-19 06:33N 49°09' W 123°02'0 0.0
2015-May-19 05:33N 49°09' W 123°02'0 0.0
2015-May-19 04:33N 49°09' W 123°02'0 0.0
2015-May-19 03:33N 49°09' W 123°02'0 0.0
2015-May-19 02:33N 49°09' W 123°02'0 0.0
2015-May-19 01:33N 49°09' W 123°02'0 0.0
2015-May-19 00:33N 49°09' W 123°02'0 0.0
2015-May-18 23:33N 49°09' W 123°02'0 0.0
2015-May-18 22:33N 49°09' W 123°02'0 0.0
2015-May-18 21:33N 49°09' W 123°02'0 0.0
2015-May-18 20:33N 49°09' W 123°02'0 0.0
2015-May-18 19:33N 49°09' W 123°02'0 0.0
2015-May-18 18:32N 49°09' W 123°02'0 0.0
2015-May-18 17:19N 49°09' W 123°02'0 0.0
2015-May-18 16:29N 49°09' W 123°02'0 0.0
2015-May-18 15:33N 49°09' W 123°02'0 0.0
2015-May-18 14:32N 49°09' W 123°02'0 0.0
2015-May-18 13:33N 49°09' W 123°02'0 0.0
2015-May-18 12:32N 49°09' W 123°02'0 0.0
2015-May-17 22:19N 49°09' W 123°02'0 0.0
2015-May-17 21:31N 49°09' W 123°02'0 0.0
2015-May-17 20:26N 49°09' W 123°02'0 0.0
2015-May-17 19:14N 49°09' W 123°02'0 0.0
2015-May-17 18:33N 49°09' W 123°02'0 0.0
2015-May-17 17:31N 49°09' W 123°02'0 0.0
2015-May-17 16:33N 49°09' W 123°02'0 0.0
2015-May-17 15:33N 49°09' W 123°02'2 1.9
2015-May-17 14:33N 49°07' W 123°04'10 9.8
2015-May-17 13:33N 49°06' W 123°19'1212.1
2015-May-17 12:33N 48°54' W 123°18'1211.8
2015-May-17 11:33N 48°43' W 123°24'1 1.5
2015-May-17 10:33N 48°41' W 123°24'2 2.3
2015-May-17 09:33N 48°42' W 123°21'1010.2
2015-May-17 08:33N 48°52' W 123°18'1212.4
2015-May-17 07:33N 49°05' W 123°20'1212.2
2015-May-17 06:33N 49°09' W 123°02'0 0.2
2015-May-17 05:33N 49°09' W 123°02'0 0.0
2015-May-17 04:34N 49°09' W 123°02'0 0.0
2015-May-17 03:34N 49°09' W 123°02'0 0.0
2015-May-17 02:34N 49°09' W 123°02'0 0.0
2015-May-17 01:34N 49°09' W 123°02'0 0.0
2015-May-17 00:34N 49°09' W 123°02'0 0.0
2015-May-16 23:34N 49°09' W 123°02'0 0.0
2015-May-16 22:33N 49°09' W 123°02'0 0.0
2015-May-16 21:34N 49°09' W 123°02'0 0.0
2015-May-16 20:34N 49°09' W 123°02'0 0.0
2015-May-16 19:34N 49°09' W 123°02'0 0.0
2015-May-16 18:34N 49°09' W 123°02'0 0.0
2015-May-16 17:34N 49°09' W 123°02'0 0.0
2015-May-16 16:34N 49°09' W 123°02'0 0.0
2015-May-16 15:34N 49°09' W 123°02'  
Track history (hours):
 
Tides and Currents Weather Stations Pressure Air Temp Water Temp Dewpoint Dewpoint Depression Visibility Wind Speed Wind Dir Waves Ship Positions

Carrier Princess

Last reported at 2015-May-26 15:34 UTC. Time now 2015-May-26 15:43 UTC.
Position N 49°10' W 123°56'.

Length 112 m; draft 3 m.

Type: Cargo ship. MMSI: 316003656.

Date/timePositionNaut miles runAvg speedWind from/ knotsBaromVisibWave heightAir tempDewpointWater temp
2015-May-26 15:34N 49°10' W 123°56'0 0.0
2015-May-26 14:33N 49°10' W 123°56'0 0.0
2015-May-26 13:34N 49°10' W 123°56'0 0.0
2015-May-26 12:33N 49°10' W 123°56'0 0.0
2015-May-26 11:34N 49°10' W 123°56'5 5.3
2015-May-26 10:34N 49°13' W 123°49'1312.7
2015-May-26 09:34N 49°09' W 123°31'1312.5
2015-May-26 08:33N 49°07' W 123°12'7 6.6
2015-May-26 07:34N 49°09' W 123°02'0 0.0
2015-May-26 06:33N 49°09' W 123°02'10 9.9
2015-May-26 05:33N 49°07' W 123°17'1212.5
2015-May-26 04:33N 48°54' W 123°18'1312.8
2015-May-26 03:34N 48°42' W 123°24'1 0.9
2015-May-26 02:33N 48°41' W 123°24'0 0.0
2015-May-26 01:32N 48°41' W 123°24'1110.9
2015-May-26 00:33N 48°52' W 123°20'1312.6
2015-May-25 23:34N 49°04' W 123°21'1313.3
2015-May-25 22:33N 49°09' W 123°02'0 0.0
2015-May-25 21:33N 49°09' W 123°02'0 0.1
2015-May-25 20:33N 49°09' W 123°02'0 0.0
2015-May-25 19:33N 49°09' W 123°02'0 0.0
2015-May-25 18:33N 49°09' W 123°02'0 0.0
2015-May-25 17:33N 49°09' W 123°02'0 0.0
2015-May-25 16:33N 49°09' W 123°02'0 0.0
2015-May-25 15:33N 49°09' W 123°02'0 0.0
2015-May-25 14:33N 49°09' W 123°02'0 0.0
2015-May-25 13:33N 49°09' W 123°02'0 0.0
2015-May-25 12:33N 49°09' W 123°02'0 0.0
2015-May-25 11:33N 49°09' W 123°02'0 0.0
2015-May-25 10:33N 49°09' W 123°02'0 0.0
2015-May-25 09:33N 49°09' W 123°02'0 0.0
2015-May-25 08:33N 49°09' W 123°02'0 0.0
2015-May-25 07:33N 49°09' W 123°02'0 0.0
2015-May-25 06:33N 49°09' W 123°02'0 0.0
2015-May-25 05:33N 49°09' W 123°02'0 0.0
2015-May-25 04:33N 49°09' W 123°02'0 0.0
2015-May-25 03:33N 49°09' W 123°02'0 0.0
2015-May-25 02:33N 49°09' W 123°02'0 0.0
2015-May-25 01:33N 49°09' W 123°02'0 0.0
2015-May-25 00:33N 49°09' W 123°02'0 0.0
2015-May-24 23:33N 49°09' W 123°02'0 0.0
2015-May-24 22:33N 49°09' W 123°02'0 0.0
2015-May-24 21:33N 49°09' W 123°02'0 0.0
2015-May-24 20:33N 49°09' W 123°02'0 0.0
2015-May-24 19:33N 49°09' W 123°02'0 0.0
2015-May-24 18:33N 49°09' W 123°02'0 0.0
2015-May-24 17:33N 49°09' W 123°02'0 0.0
2015-May-24 16:33N 49°09' W 123°02'0 0.0
2015-May-24 15:33N 49°09' W 123°02'12 5.8
2015-May-24 13:32N 49°01' W 123°16'1211.0
2015-May-24 12:28N 48°50' W 123°20'9 8.5
2015-May-24 11:27N 48°41' W 123°24'0 0.0
2015-May-24 10:29N 48°41' W 123°24'0 0.4
2015-May-24 09:33N 48°42' W 123°24'1711.9
2015-May-24 08:09N 48°58' W 123°19'812.9
2015-May-24 07:31N 49°06' W 123°19'1111.6
2015-May-24 06:33N 49°09' W 123°02'0 0.2
2015-May-24 05:34N 49°09' W 123°02'0 0.0
2015-May-24 04:33N 49°09' W 123°02'0 0.0
2015-May-24 03:34N 49°09' W 123°02'0 0.0
2015-May-24 02:34N 49°09' W 123°02'0 0.0
2015-May-24 01:34N 49°09' W 123°02'0 0.0
2015-May-24 00:33N 49°09' W 123°02'0 0.0
2015-May-23 23:34N 49°09' W 123°02'0 0.0
2015-May-23 22:34N 49°09' W 123°02'0 0.0
2015-May-23 21:34N 49°09' W 123°02'0 0.0
2015-May-23 20:34N 49°09' W 123°02'0 0.0
2015-May-23 19:34N 49°09' W 123°02'0 0.0
2015-May-23 18:33N 49°09' W 123°02'0 0.0
2015-May-23 17:34N 49°09' W 123°02'0 0.0
2015-May-23 16:34N 49°09' W 123°02'0 0.0
2015-May-23 15:34N 49°09' W 123°02'4 3.8
2015-May-23 14:34N 49°07' W 123°07'8 8.3
2015-May-23 13:34N 49°04' W 123°19'1212.3
2015-May-23 12:33N 48°51' W 123°19'1110.5
2015-May-23 11:32N 48°41' W 123°24'0 0.1
2015-May-23 10:33N 48°41' W 123°24'6 6.3
2015-May-23 09:34N 48°47' W 123°21'1414.0
2015-May-23 08:34N 49°01' W 123°18'10 9.8
2015-May-23 07:34N 49°07' W 123°06'3 3.1
2015-May-23 06:33N 49°09' W 123°02'4 4.2
2015-May-23 05:34N 49°06' W 123°08'9 8.6
2015-May-23 04:34N 49°00' W 123°17'1413.6
2015-May-23 03:34N 48°47' W 123°20'6 6.3
2015-May-23 02:33N 48°41' W 123°24'0 0.0
2015-May-23 01:33N 48°41' W 123°24'10 9.6
2015-May-23 00:33N 48°51' W 123°21'1312.5
2015-May-22 23:33N 49°03' W 123°20'1313.0
2015-May-22 22:34N 49°09' W 123°02'0 0.0
2015-May-22 21:34N 49°09' W 123°02'0 0.0
2015-May-22 20:34N 49°09' W 123°02'0 0.0
2015-May-22 19:34N 49°09' W 123°02'0 0.0
2015-May-22 18:34N 49°09' W 123°02'0 0.0
2015-May-22 17:34N 49°09' W 123°02'0 0.0
2015-May-22 16:33N 49°09' W 123°02'0 0.0
2015-May-22 15:34N 49°09' W 123°02'5 5.4
2015-May-22 14:33N 49°07' W 123°10'7 7.2
2015-May-22 13:34N 49°01' W 123°17'1211.6
2015-May-22 12:33N 48°50' W 123°21'9 9.1
2015-May-22 11:33N 48°41' W 123°24'0 0.0
2015-May-22 10:33N 48°41' W 123°24'4 3.8
2015-May-22 09:33N 48°44' W 123°21'1515.0
2015-May-22 08:34N 48°59' W 123°18'1111.1
2015-May-22 07:33N 49°07' W 123°06'3 3.1
2015-May-22 06:33N 49°09' W 123°02'3 2.6
2015-May-22 05:33N 49°07' W 123°05'1010.1
2015-May-22 04:33N 49°01' W 123°18'1312.7
2015-May-22 03:33N 48°49' W 123°20'8 8.0
2015-May-22 02:33N 48°41' W 123°24'0 0.0
2015-May-22 01:33N 48°41' W 123°24'1010.2
2015-May-22 00:32N 48°51' W 123°21'1313.1
2015-May-21 23:33N 49°04' W 123°19'1212.1
2015-May-21 22:33N 49°09' W 123°02'0 0.0
2015-May-21 21:33N 49°09' W 123°02'0 0.0
2015-May-21 20:33N 49°09' W 123°02'0 0.0
2015-May-21 19:33N 49°09' W 123°02'0 0.0
2015-May-21 18:33N 49°09' W 123°02'0 0.0
2015-May-21 17:33N 49°09' W 123°02'0 0.0
2015-May-21 16:33N 49°09' W 123°02'0 0.0
2015-May-21 15:33N 49°09' W 123°02'5 5.2
2015-May-21 14:33N 49°07' W 123°09'7 7.3
2015-May-21 13:33N 49°02' W 123°18'1211.8
2015-May-21 12:33N 48°50' W 123°21'9 9.0
2015-May-21 11:33N 48°41' W 123°24'0 0.0
2015-May-21 10:33N 48°41' W 123°24'5 4.7
2015-May-21 09:33N 48°45' W 123°21'1514.5
2015-May-21 08:33N 48°60' W 123°19'1211.7
2015-May-21 07:34N 49°07' W 123°05'2 2.4
2015-May-21 06:33N 49°09' W 123°02'5 4.8
2015-May-21 05:33N 49°06' W 123°09'9 8.8
2015-May-21 04:33N 48°60' W 123°17'1313.1
2015-May-21 03:34N 48°47' W 123°21'6 5.9
2015-May-21 02:33N 48°41' W 123°24'0 0.0
2015-May-21 01:32N 48°41' W 123°24'9 9.1
2015-May-21 00:33N 48°50' W 123°21'1313.0
2015-May-20 23:33N 49°03' W 123°19'1312.5
2015-May-20 22:34N 49°09' W 123°02'0 0.2
2015-May-20 21:33N 49°09' W 123°02'0 0.0
2015-May-20 20:33N 49°09' W 123°02'0 0.0
2015-May-20 19:33N 49°09' W 123°02'0 0.0
2015-May-20 18:33N 49°09' W 123°02'0 0.0
2015-May-20 17:33N 49°09' W 123°02'0 0.0
2015-May-20 16:33N 49°09' W 123°02'0 0.0
2015-May-20 15:34N 49°09' W 123°02'5 5.5
2015-May-20 14:34N 49°07' W 123°10'7 6.9
2015-May-20 13:33N 49°02' W 123°17'1211.4
2015-May-20 12:33N 48°50' W 123°21'9 9.6
2015-May-20 11:33N 48°41' W 123°24'0 0.0
2015-May-20 10:32N 48°41' W 123°24'7 7.2
2015-May-20 09:33N 48°48' W 123°21'1313.5
2015-May-20 08:33N 49°01' W 123°19'1211.9
2015-May-20 07:33N 49°08' W 123°04'1 1.4
2015-May-20 06:33N 49°09' W 123°02'5 5.0
2015-May-20 05:33N 49°07' W 123°09'10 9.5
2015-May-20 04:33N 48°59' W 123°18'1211.9
2015-May-20 03:33N 48°47' W 123°21'7 6.6
2015-May-20 02:33N 48°41' W 123°24'0 0.0
2015-May-20 01:33N 48°41' W 123°24'9 8.7
2015-May-20 00:33N 48°50' W 123°21'1312.9
2015-May-19 23:34N 49°02' W 123°19'1212.3
2015-May-19 22:34N 49°09' W 123°03'1 0.5
2015-May-19 21:33N 49°09' W 123°02'0 0.1
2015-May-19 20:33N 49°09' W 123°02'0 0.0
2015-May-19 19:34N 49°09' W 123°02'0 0.0
2015-May-19 18:33N 49°09' W 123°02'0 0.0
2015-May-19 17:33N 49°09' W 123°02'0 0.0
2015-May-19 16:33N 49°09' W 123°02'0 0.0
2015-May-19 15:33N 49°09' W 123°02'0 0.0
2015-May-19 14:33N 49°09' W 123°02'0 0.0
2015-May-19 13:33N 49°09' W 123°02'0 0.0
2015-May-19 12:33N 49°09' W 123°02'0 0.0
2015-May-19 11:33N 49°09' W 123°02'0 0.0
2015-May-19 10:33N 49°09' W 123°02'0 0.0
2015-May-19 09:33N 49°09' W 123°02'0 0.0
2015-May-19 08:33N 49°09' W 123°02'0 0.0
2015-May-19 07:33N 49°09' W 123°02'0 0.0
2015-May-19 06:33N 49°09' W 123°02'0 0.0
2015-May-19 05:33N 49°09' W 123°02'0 0.0
2015-May-19 04:33N 49°09' W 123°02'0 0.0
2015-May-19 03:33N 49°09' W 123°02'0 0.0
2015-May-19 02:33N 49°09' W 123°02'0 0.0
2015-May-19 01:33N 49°09' W 123°02'0 0.0
2015-May-19 00:33N 49°09' W 123°02'0 0.0
2015-May-18 23:33N 49°09' W 123°02'0 0.0
2015-May-18 22:33N 49°09' W 123°02'0 0.0
2015-May-18 21:33N 49°09' W 123°02'0 0.0
2015-May-18 20:33N 49°09' W 123°02'0 0.0
2015-May-18 19:33N 49°09' W 123°02'0 0.0
2015-May-18 18:32N 49°09' W 123°02'0 0.0
2015-May-18 17:19N 49°09' W 123°02'0 0.0
2015-May-18 16:29N 49°09' W 123°02'0 0.0
2015-May-18 15:33N 49°09' W 123°02'0 0.0
2015-May-18 14:32N 49°09' W 123°02'0 0.0
2015-May-18 13:33N 49°09' W 123°02'0 0.0
2015-May-18 12:32N 49°09' W 123°02'0 0.0
2015-May-17 22:19N 49°09' W 123°02'0 0.0
2015-May-17 21:31N 49°09' W 123°02'0 0.0
2015-May-17 20:26N 49°09' W 123°02'0 0.0
2015-May-17 19:14N 49°09' W 123°02'0 0.0
2015-May-17 18:33N 49°09' W 123°02'0 0.0
2015-May-17 17:31N 49°09' W 123°02'0 0.0
2015-May-17 16:33N 49°09' W 123°02'0 0.0
2015-May-17 15:33N 49°09' W 123°02'2 1.9
2015-May-17 14:33N 49°07' W 123°04'10 9.8
2015-May-17 13:33N 49°06' W 123°19'1212.1
2015-May-17 12:33N 48°54' W 123°18'1211.8
2015-May-17 11:33N 48°43' W 123°24'1 1.5
2015-May-17 10:33N 48°41' W 123°24'2 2.3
2015-May-17 09:33N 48°42' W 123°21'1010.2
2015-May-17 08:33N 48°52' W 123°18'1212.4
2015-May-17 07:33N 49°05' W 123°20'1212.2
2015-May-17 06:33N 49°09' W 123°02'0 0.2
2015-May-17 05:33N 49°09' W 123°02'0 0.0
2015-May-17 04:34N 49°09' W 123°02'0 0.0
2015-May-17 03:34N 49°09' W 123°02'0 0.0
2015-May-17 02:34N 49°09' W 123°02'0 0.0
2015-May-17 01:34N 49°09' W 123°02'0 0.0
2015-May-17 00:34N 49°09' W 123°02'0 0.0
2015-May-16 23:34N 49°09' W 123°02'0 0.0
2015-May-16 22:33N 49°09' W 123°02'0 0.0
2015-May-16 21:34N 49°09' W 123°02'0 0.0
2015-May-16 20:34N 49°09' W 123°02'0 0.0
2015-May-16 19:34N 49°09' W 123°02'0 0.0
2015-May-16 18:34N 49°09' W 123°02'0 0.0
2015-May-16 17:34N 49°09' W 123°02'0 0.0
2015-May-16 16:34N 49°09' W 123°02'0 0.0
2015-May-16 15:34N 49°09' W 123°02'  

Dump ship's entire track history